sensor_id;sensor_type;location;lat;lon;timestamp;pressure;altitude;pressure_sealevel;temperature;humidity
2681;BME280;1350;42.134;24.708;2023-03-25T00:00:48;99195.31;;;9.96;100.00
2681;BME280;1350;42.134;24.708;2023-03-25T00:03:19;99193.09;;;9.89;100.00
2681;BME280;1350;42.134;24.708;2023-03-25T00:05:46;99186.88;;;9.74;100.00
2681;BME280;1350;42.134;24.708;2023-03-25T00:08:14;99189.94;;;9.98;100.00
2681;BME280;1350;42.134;24.708;2023-03-25T00:10:41;99194.13;;;9.86;100.00
2681;BME280;1350;42.134;24.708;2023-03-25T00:13:07;99187.53;;;9.78;100.00
2681;BME280;1350;42.134;24.708;2023-03-25T00:15:40;99187.97;;;9.86;100.00
2681;BME280;1350;42.134;24.708;2023-03-25T00:18:10;99185.94;;;9.91;100.00
2681;BME280;1350;42.134;24.708;2023-03-25T00:20:38;99183.38;;;9.89;100.00
2681;BME280;1350;42.134;24.708;2023-03-25T00:23:06;99177.28;;;10.03;100.00
2681;BME280;1350;42.134;24.708;2023-03-25T00:25:33;99181.16;;;10.13;100.00
2681;BME280;1350;42.134;24.708;2023-03-25T00:27:59;99185.53;;;10.14;100.00
2681;BME280;1350;42.134;24.708;2023-03-25T00:30:27;99182.00;;;10.13;100.00
2681;BME280;1350;42.134;24.708;2023-03-25T00:32:54;99170.94;;;10.07;100.00
2681;BME280;1350;42.134;24.708;2023-03-25T00:35:22;99167.56;;;10.03;100.00
2681;BME280;1350;42.134;24.708;2023-03-25T00:37:51;99169.34;;;9.87;100.00
2681;BME280;1350;42.134;24.708;2023-03-25T00:40:21;99159.72;;;9.86;100.00
2681;BME280;1350;42.134;24.708;2023-03-25T00:42:48;99171.25;;;9.85;100.00
2681;BME280;1350;42.134;24.708;2023-03-25T00:45:15;99163.78;;;9.76;100.00
2681;BME280;1350;42.134;24.708;2023-03-25T00:47:42;99163.13;;;9.73;100.00
2681;BME280;1350;42.134;24.708;2023-03-25T00:50:09;99161.56;;;9.69;100.00
2681;BME280;1350;42.134;24.708;2023-03-25T00:52:36;99158.00;;;9.70;100.00
2681;BME280;1350;42.134;24.708;2023-03-25T00:55:05;99156.44;;;9.66;100.00
2681;BME280;1350;42.134;24.708;2023-03-25T00:57:32;99157.06;;;9.71;100.00
2681;BME280;1350;42.134;24.708;2023-03-25T01:00:00;99155.63;;;9.81;100.00
2681;BME280;1350;42.134;24.708;2023-03-25T01:02:30;99157.56;;;9.77;100.00
2681;BME280;1350;42.134;24.708;2023-03-25T01:04:58;99155.44;;;9.68;100.00
2681;BME280;1350;42.134;24.708;2023-03-25T01:07:25;99154.84;;;9.63;100.00
2681;BME280;1350;42.134;24.708;2023-03-25T01:09:53;99149.63;;;9.77;100.00
2681;BME280;1350;42.134;24.708;2023-03-25T01:12:23;99159.72;;;9.86;100.00
2681;BME280;1350;42.134;24.708;2023-03-25T01:14:50;99152.03;;;9.82;100.00
2681;BME280;1350;42.134;24.708;2023-03-25T01:17:17;99148.34;;;9.84;100.00
2681;BME280;1350;42.134;24.708;2023-03-25T01:19:44;99142.69;;;9.90;100.00
2681;BME280;1350;42.134;24.708;2023-03-25T01:22:10;99141.16;;;10.02;100.00
2681;BME280;1350;42.134;24.708;2023-03-25T01:24:37;99140.13;;;9.89;100.00
2681;BME280;1350;42.134;24.708;2023-03-25T01:27:04;99131.75;;;9.96;100.00
2681;BME280;1350;42.134;24.708;2023-03-25T01:29:32;99125.53;;;9.97;100.00
2681;BME280;1350;42.134;24.708;2023-03-25T01:31:59;99129.06;;;9.82;100.00
2681;BME280;1350;42.134;24.708;2023-03-25T01:34:26;99120.19;;;9.68;100.00
2681;BME280;1350;42.134;24.708;2023-03-25T01:36:53;99120.00;;;9.71;100.00
2681;BME280;1350;42.134;24.708;2023-03-25T01:39:21;99122.22;;;9.78;100.00
2681;BME280;1350;42.134;24.708;2023-03-25T01:41:49;99119.13;;;9.86;100.00
2681;BME280;1350;42.134;24.708;2023-03-25T01:47:23;99106.06;;;9.52;100.00
2681;BME280;1350;42.134;24.708;2023-03-25T01:49:51;99107.47;;;9.59;100.00
2681;BME280;1350;42.134;24.708;2023-03-25T01:52:22;99102.59;;;9.51;100.00
2681;BME280;1350;42.134;24.708;2023-03-25T01:54:51;99101.56;;;9.69;100.00
2681;BME280;1350;42.134;24.708;2023-03-25T01:57:19;99101.91;;;9.63;100.00
2681;BME280;1350;42.134;24.708;2023-03-25T01:59:49;99106.00;;;9.69;100.00
2681;BME280;1350;42.134;24.708;2023-03-25T02:02:18;99098.13;;;9.67;100.00
2681;BME280;1350;42.134;24.708;2023-03-25T02:04:51;99091.94;;;9.53;100.00
2681;BME280;1350;42.134;24.708;2023-03-25T02:07:24;99094.41;;;9.56;100.00
2681;BME280;1350;42.134;24.708;2023-03-25T02:09:56;99085.00;;;9.50;100.00
2681;BME280;1350;42.134;24.708;2023-03-25T02:12:23;99081.78;;;9.45;100.00
2681;BME280;1350;42.134;24.708;2023-03-25T02:14:51;99076.66;;;9.58;100.00
2681;BME280;1350;42.134;24.708;2023-03-25T02:17:25;99085.34;;;9.44;100.00
2681;BME280;1350;42.134;24.708;2023-03-25T02:20:23;99085.69;;;9.38;100.00
2681;BME280;1350;42.134;24.708;2023-03-25T02:26:04;99090.53;;;9.30;100.00
2681;BME280;1350;42.134;24.708;2023-03-25T02:28:42;99092.31;;;9.14;100.00
2681;BME280;1350;42.134;24.708;2023-03-25T02:31:47;99079.94;;;8.99;100.00
2681;BME280;1350;42.134;24.708;2023-03-25T02:34:39;99072.00;;;8.99;100.00
2681;BME280;1350;42.134;24.708;2023-03-25T02:40:25;99077.88;;;9.04;100.00
2681;BME280;1350;42.134;24.708;2023-03-25T02:42:56;99071.69;;;9.05;100.00
2681;BME280;1350;42.134;24.708;2023-03-25T02:45:29;99073.97;;;9.11;100.00
2681;BME280;1350;42.134;24.708;2023-03-25T02:47:59;99074.56;;;9.01;100.00
2681;BME280;1350;42.134;24.708;2023-03-25T02:50:32;99073.59;;;8.86;100.00
2681;BME280;1350;42.134;24.708;2023-03-25T02:53:03;99065.81;;;8.83;100.00
2681;BME280;1350;42.134;24.708;2023-03-25T02:55:34;99072.13;;;8.81;100.00
2681;BME280;1350;42.134;24.708;2023-03-25T02:58:04;99069.66;;;8.78;100.00
2681;BME280;1350;42.134;24.708;2023-03-25T03:00:34;99056.53;;;8.76;100.00
2681;BME280;1350;42.134;24.708;2023-03-25T03:03:04;99053.97;;;8.75;100.00
2681;BME280;1350;42.134;24.708;2023-03-25T03:05:33;99055.25;;;8.83;100.00
2681;BME280;1350;42.134;24.708;2023-03-25T03:08:19;99055.22;;;8.68;100.00
2681;BME280;1350;42.134;24.708;2023-03-25T03:10:54;99047.97;;;8.71;100.00
2681;BME280;1350;42.134;24.708;2023-03-25T03:13:30;99045.38;;;8.87;100.00
2681;BME280;1350;42.134;24.708;2023-03-25T03:16:07;99054.72;;;8.77;100.00
2681;BME280;1350;42.134;24.708;2023-03-25T03:18:43;99049.59;;;8.74;100.00
2681;BME280;1350;42.134;24.708;2023-03-25T03:21:15;99046.44;;;8.67;100.00
2681;BME280;1350;42.134;24.708;2023-03-25T03:23:54;99039.19;;;8.71;100.00
2681;BME280;1350;42.134;24.708;2023-03-25T03:26:28;99042.38;;;8.77;100.00
2681;BME280;1350;42.134;24.708;2023-03-25T03:29:00;99036.28;;;8.75;100.00
2681;BME280;1350;42.134;24.708;2023-03-25T03:31:34;99039.59;;;8.63;100.00
2681;BME280;1350;42.134;24.708;2023-03-25T03:34:07;99031.06;;;8.58;100.00
2681;BME280;1350;42.134;24.708;2023-03-25T03:36:38;99035.66;;;8.54;100.00
2681;BME280;1350;42.134;24.708;2023-03-25T03:39:11;99035.78;;;8.69;100.00
2681;BME280;1350;42.134;24.708;2023-03-25T03:41:44;99037.69;;;8.49;100.00
2681;BME280;1350;42.134;24.708;2023-03-25T03:44:14;99044.84;;;8.47;100.00
2681;BME280;1350;42.134;24.708;2023-03-25T03:46:48;99046.75;;;8.61;100.00
2681;BME280;1350;42.134;24.708;2023-03-25T03:49:21;99042.97;;;8.49;100.00
2681;BME280;1350;42.134;24.708;2023-03-25T03:51:54;99042.50;;;8.58;100.00
2681;BME280;1350;42.134;24.708;2023-03-25T03:54:24;99034.56;;;8.58;100.00
2681;BME280;1350;42.134;24.708;2023-03-25T03:56:55;99040.72;;;8.59;100.00
2681;BME280;1350;42.134;24.708;2023-03-25T03:59:31;99027.63;;;8.40;100.00
2681;BME280;1350;42.134;24.708;2023-03-25T04:02:03;99028.56;;;8.55;100.00
2681;BME280;1350;42.134;24.708;2023-03-25T04:04:33;99034.66;;;8.57;100.00
2681;BME280;1350;42.134;24.708;2023-03-25T04:07:07;99037.72;;;8.32;100.00
2681;BME280;1350;42.134;24.708;2023-03-25T04:09:39;99038.81;;;8.28;100.00
2681;BME280;1350;42.134;24.708;2023-03-25T04:12:14;99041.44;;;8.45;100.00
2681;BME280;1350;42.134;24.708;2023-03-25T04:14:43;99038.63;;;8.48;100.00
2681;BME280;1350;42.134;24.708;2023-03-25T04:17:10;99041.13;;;8.51;100.00
2681;BME280;1350;42.134;24.708;2023-03-25T04:19:37;99033.88;;;8.55;100.00
2681;BME280;1350;42.134;24.708;2023-03-25T04:22:05;99042.53;;;8.41;100.00
2681;BME280;1350;42.134;24.708;2023-03-25T04:24:32;99045.13;;;8.58;100.00
2681;BME280;1350;42.134;24.708;2023-03-25T04:27:02;99054.22;;;8.70;100.00
2681;BME280;1350;42.134;24.708;2023-03-25T04:29:31;99049.81;;;9.02;100.00
2681;BME280;1350;42.134;24.708;2023-03-25T04:31:58;99050.31;;;9.70;100.00
2681;BME280;1350;42.134;24.708;2023-03-25T04:34:25;99047.66;;;10.73;100.00
2681;BME280;1350;42.134;24.708;2023-03-25T04:36:52;99048.75;;;11.80;100.00
2681;BME280;1350;42.134;24.708;2023-03-25T04:39:19;99051.38;;;12.96;92.86
2681;BME280;1350;42.134;24.708;2023-03-25T04:41:47;99044.84;;;13.37;87.40
2681;BME280;1350;42.134;24.708;2023-03-25T04:44:14;99046.16;;;13.55;82.69
2681;BME280;1350;42.134;24.708;2023-03-25T04:46:42;99055.94;;;13.19;83.29
2681;BME280;1350;42.134;24.708;2023-03-25T04:49:16;99054.34;;;12.66;86.77
2681;BME280;1350;42.134;24.708;2023-03-25T04:51:43;99052.00;;;12.74;86.67
2681;BME280;1350;42.134;24.708;2023-03-25T04:54:10;99062.66;;;12.62;87.24
2681;BME280;1350;42.134;24.708;2023-03-25T04:56:37;99058.38;;;12.72;87.18
2681;BME280;1350;42.134;24.708;2023-03-25T04:59:04;99063.38;;;12.89;86.38
2681;BME280;1350;42.134;24.708;2023-03-25T05:01:35;99057.00;;;13.04;85.27
2681;BME280;1350;42.134;24.708;2023-03-25T05:04:08;99055.72;;;13.22;84.72
2681;BME280;1350;42.134;24.708;2023-03-25T05:06:37;99057.38;;;13.48;82.86
2681;BME280;1350;42.134;24.708;2023-03-25T05:09:06;99048.22;;;13.76;81.04
2681;BME280;1350;42.134;24.708;2023-03-25T05:11:34;99055.06;;;14.14;78.89
2681;BME280;1350;42.134;24.708;2023-03-25T05:14:01;99046.44;;;14.34;75.95
2681;BME280;1350;42.134;24.708;2023-03-25T05:16:28;99047.31;;;14.46;75.37
2681;BME280;1350;42.134;24.708;2023-03-25T05:18:55;99043.63;;;14.81;74.61
2681;BME280;1350;42.134;24.708;2023-03-25T05:21:25;99046.53;;;15.34;72.44
2681;BME280;1350;42.134;24.708;2023-03-25T05:23:52;99050.41;;;15.52;69.69
2681;BME280;1350;42.134;24.708;2023-03-25T05:26:19;99052.56;;;15.80;68.62
2681;BME280;1350;42.134;24.708;2023-03-25T05:28:46;99045.19;;;16.04;67.17
2681;BME280;1350;42.134;24.708;2023-03-25T05:31:15;99050.63;;;16.13;65.42
2681;BME280;1350;42.134;24.708;2023-03-25T05:33:42;99051.13;;;16.07;65.33
2681;BME280;1350;42.134;24.708;2023-03-25T05:36:10;99049.59;;;16.57;64.24
2681;BME280;1350;42.134;24.708;2023-03-25T05:38:39;99043.97;;;17.11;63.15
2681;BME280;1350;42.134;24.708;2023-03-25T05:41:08;99043.19;;;17.59;60.87
2681;BME280;1350;42.134;24.708;2023-03-25T05:43:35;99038.59;;;17.90;59.50
2681;BME280;1350;42.134;24.708;2023-03-25T05:46:02;99047.25;;;18.12;57.92
2681;BME280;1350;42.134;24.708;2023-03-25T05:48:29;99040.66;;;18.45;56.65
2681;BME280;1350;42.134;24.708;2023-03-25T05:50:57;99032.53;;;18.83;56.01
2681;BME280;1350;42.134;24.708;2023-03-25T05:53:24;99034.16;;;19.03;54.91
2681;BME280;1350;42.134;24.708;2023-03-25T05:55:52;99040.91;;;19.17;53.69
2681;BME280;1350;42.134;24.708;2023-03-25T05:58:19;99038.09;;;19.45;53.48
2681;BME280;1350;42.134;24.708;2023-03-25T06:00:46;99043.03;;;19.77;52.12
2681;BME280;1350;42.134;24.708;2023-03-25T06:03:12;99031.63;;;19.92;50.74
2681;BME280;1350;42.134;24.708;2023-03-25T06:05:39;99042.59;;;20.26;50.33
2681;BME280;1350;42.134;24.708;2023-03-25T06:08:06;99037.59;;;20.31;49.89
2681;BME280;1350;42.134;24.708;2023-03-25T06:10:33;99042.66;;;20.34;49.29
2681;BME280;1350;42.134;24.708;2023-03-25T06:13:01;99040.16;;;20.58;48.98
2681;BME280;1350;42.134;24.708;2023-03-25T06:15:30;99040.88;;;21.03;48.51
2681;BME280;1350;42.134;24.708;2023-03-25T06:18:04;99037.75;;;21.49;47.76
2681;BME280;1350;42.134;24.708;2023-03-25T06:20:30;99037.56;;;21.43;47.03
2681;BME280;1350;42.134;24.708;2023-03-25T06:22:57;99047.56;;;21.58;47.03
2681;BME280;1350;42.134;24.708;2023-03-25T06:25:24;99046.59;;;21.67;46.58
2681;BME280;1350;42.134;24.708;2023-03-25T06:27:53;99041.50;;;21.98;46.09
2681;BME280;1350;42.134;24.708;2023-03-25T06:30:23;99042.84;;;22.10;45.55
2681;BME280;1350;42.134;24.708;2023-03-25T06:32:50;99035.81;;;22.41;45.07
2681;BME280;1350;42.134;24.708;2023-03-25T06:35:20;99037.53;;;22.90;44.74
2681;BME280;1350;42.134;24.708;2023-03-25T06:37:49;99033.94;;;23.06;43.76
2681;BME280;1350;42.134;24.708;2023-03-25T06:40:16;99034.25;;;23.35;43.24
2681;BME280;1350;42.134;24.708;2023-03-25T06:42:42;99032.34;;;23.44;43.09
2681;BME280;1350;42.134;24.708;2023-03-25T06:45:11;99023.81;;;23.63;42.37
2681;BME280;1350;42.134;24.708;2023-03-25T06:47:39;99032.44;;;24.05;42.22
2681;BME280;1350;42.134;24.708;2023-03-25T06:50:07;99027.75;;;24.21;41.21
2681;BME280;1350;42.134;24.708;2023-03-25T06:52:34;99029.38;;;24.08;40.87
2681;BME280;1350;42.134;24.708;2023-03-25T06:55:01;99025.63;;;24.31;40.77
2681;BME280;1350;42.134;24.708;2023-03-25T06:57:28;99027.97;;;24.34;40.33
2681;BME280;1350;42.134;24.708;2023-03-25T06:59:55;99029.00;;;24.56;40.44
2681;BME280;1350;42.134;24.708;2023-03-25T07:02:22;99031.72;;;24.56;39.77
2681;BME280;1350;42.134;24.708;2023-03-25T07:04:50;99029.78;;;24.64;39.60
2681;BME280;1350;42.134;24.708;2023-03-25T07:07:17;99030.59;;;24.28;39.97
2681;BME280;1350;42.134;24.708;2023-03-25T07:09:43;99023.41;;;24.57;40.19
2681;BME280;1350;42.134;24.708;2023-03-25T07:12:11;99031.75;;;24.78;39.99
2681;BME280;1350;42.134;24.708;2023-03-25T07:14:38;99020.34;;;24.83;40.27
2681;BME280;1350;42.134;24.708;2023-03-25T07:17:08;99026.16;;;24.95;39.45
2681;BME280;1350;42.134;24.708;2023-03-25T07:19:35;99021.97;;;25.21;38.79
2681;BME280;1350;42.134;24.708;2023-03-25T07:22:03;99022.63;;;25.09;38.90
2681;BME280;1350;42.134;24.708;2023-03-25T07:24:29;99017.31;;;25.59;38.41
2681;BME280;1350;42.134;24.708;2023-03-25T07:26:56;99029.44;;;25.92;38.19
2681;BME280;1350;42.134;24.708;2023-03-25T07:29:23;99025.69;;;25.93;37.70
2681;BME280;1350;42.134;24.708;2023-03-25T07:31:49;99022.97;;;26.07;37.54
2681;BME280;1350;42.134;24.708;2023-03-25T07:34:16;99013.78;;;26.08;37.63
2681;BME280;1350;42.134;24.708;2023-03-25T07:36:43;99012.00;;;26.36;37.73
2681;BME280;1350;42.134;24.708;2023-03-25T07:39:12;99006.63;;;26.43;37.13
2681;BME280;1350;42.134;24.708;2023-03-25T07:41:39;99014.56;;;26.02;37.48
2681;BME280;1350;42.134;24.708;2023-03-25T07:44:07;99011.44;;;25.55;38.00
2681;BME280;1350;42.134;24.708;2023-03-25T07:46:34;99002.22;;;26.21;37.73
2681;BME280;1350;42.134;24.708;2023-03-25T07:49:01;99004.03;;;26.77;36.83
2681;BME280;1350;42.134;24.708;2023-03-25T07:51:28;99003.00;;;26.78;36.80
2681;BME280;1350;42.134;24.708;2023-03-25T07:53:57;98996.44;;;27.00;38.52
2681;BME280;1350;42.134;24.708;2023-03-25T07:56:25;98996.06;;;27.31;36.23
2681;BME280;1350;42.134;24.708;2023-03-25T07:58:52;98993.16;;;27.32;36.52
2681;BME280;1350;42.134;24.708;2023-03-25T08:01:19;98987.22;;;27.56;35.85
2681;BME280;1350;42.134;24.708;2023-03-25T08:03:45;98984.59;;;27.35;36.38
2681;BME280;1350;42.134;24.708;2023-03-25T08:06:12;98980.53;;;26.97;37.30
2681;BME280;1350;42.134;24.708;2023-03-25T08:08:39;98983.94;;;26.57;37.24
2681;BME280;1350;42.134;24.708;2023-03-25T08:11:06;98974.72;;;26.30;37.61
2681;BME280;1350;42.134;24.708;2023-03-25T08:13:34;98976.75;;;25.57;38.31
2681;BME280;1350;42.134;24.708;2023-03-25T08:16:01;98970.13;;;25.16;38.79
2681;BME280;1350;42.134;24.708;2023-03-25T08:18:28;98982.31;;;25.85;38.41
2681;BME280;1350;42.134;24.708;2023-03-25T08:20:54;98975.75;;;26.51;37.20
2681;BME280;1350;42.134;24.708;2023-03-25T08:23:21;98970.09;;;27.01;36.68
2681;BME280;1350;42.134;24.708;2023-03-25T08:25:50;98964.50;;;26.81;36.86
2681;BME280;1350;42.134;24.708;2023-03-25T08:28:18;98974.94;;;26.78;37.14
2681;BME280;1350;42.134;24.708;2023-03-25T08:30:49;98971.59;;;27.10;36.53
2681;BME280;1350;42.134;24.708;2023-03-25T08:33:20;98970.63;;;26.90;36.84
2681;BME280;1350;42.134;24.708;2023-03-25T08:35:47;98967.06;;;27.17;36.61
2681;BME280;1350;42.134;24.708;2023-03-25T08:38:15;98967.81;;;27.04;36.92
2681;BME280;1350;42.134;24.708;2023-03-25T08:40:43;98967.41;;;27.35;36.43
2681;BME280;1350;42.134;24.708;2023-03-25T08:43:09;98959.13;;;28.03;35.45
2681;BME280;1350;42.134;24.708;2023-03-25T08:45:36;98965.03;;;28.20;35.31
2681;BME280;1350;42.134;24.708;2023-03-25T08:48:05;98955.78;;;28.21;35.69
2681;BME280;1350;42.134;24.708;2023-03-25T08:50:32;98953.34;;;27.78;35.79
2681;BME280;1350;42.134;24.708;2023-03-25T08:52:59;98967.06;;;27.98;35.09
2681;BME280;1350;42.134;24.708;2023-03-25T08:55:25;98946.13;;;28.12;34.87
2681;BME280;1350;42.134;24.708;2023-03-25T08:57:52;98948.28;;;26.03;36.69
2681;BME280;1350;42.134;24.708;2023-03-25T09:00:19;98941.94;;;25.17;38.60
2681;BME280;1350;42.134;24.708;2023-03-25T09:02:48;98937.34;;;25.47;38.11
2681;BME280;1350;42.134;24.708;2023-03-25T09:05:17;98922.78;;;26.25;37.84
2681;BME280;1350;42.134;24.708;2023-03-25T09:07:46;98917.38;;;26.04;37.20
2681;BME280;1350;42.134;24.708;2023-03-25T09:10:13;98910.25;;;26.52;36.99
2681;BME280;1350;42.134;24.708;2023-03-25T09:12:40;98908.03;;;27.24;36.11
2681;BME280;1350;42.134;24.708;2023-03-25T09:15:09;98903.38;;;27.58;35.93
2681;BME280;1350;42.134;24.708;2023-03-25T09:17:35;98894.72;;;27.01;36.56
2681;BME280;1350;42.134;24.708;2023-03-25T09:20:03;98896.31;;;25.92;37.13
2681;BME280;1350;42.134;24.708;2023-03-25T09:22:34;98883.94;;;26.87;35.56
2681;BME280;1350;42.134;24.708;2023-03-25T09:25:00;98885.28;;;26.63;35.84
2681;BME280;1350;42.134;24.708;2023-03-25T09:27:27;98878.63;;;27.53;35.57
2681;BME280;1350;42.134;24.708;2023-03-25T09:29:54;98877.72;;;28.00;34.75
2681;BME280;1350;42.134;24.708;2023-03-25T09:32:21;98881.53;;;28.58;33.80
2681;BME280;1350;42.134;24.708;2023-03-25T09:34:47;98876.88;;;28.78;33.21
2681;BME280;1350;42.134;24.708;2023-03-25T09:37:14;98874.81;;;28.67;33.87
2681;BME280;1350;42.134;24.708;2023-03-25T09:39:42;98872.66;;;29.01;33.11
2681;BME280;1350;42.134;24.708;2023-03-25T09:42:28;98863.41;;;28.96;33.49
2681;BME280;1350;42.134;24.708;2023-03-25T09:45:02;98858.63;;;29.42;32.68
2681;BME280;1350;42.134;24.708;2023-03-25T09:47:31;98854.16;;;27.73;34.26
2681;BME280;1350;42.134;24.708;2023-03-25T09:50:03;98857.75;;;27.86;33.37
2681;BME280;1350;42.134;24.708;2023-03-25T09:52:35;98846.44;;;27.23;34.92
2681;BME280;1350;42.134;24.708;2023-03-25T09:55:09;98842.16;;;26.67;35.74
2681;BME280;1350;42.134;24.708;2023-03-25T09:57:43;98840.69;;;26.64;35.83
2681;BME280;1350;42.134;24.708;2023-03-25T10:00:16;98838.34;;;27.36;34.68
2681;BME280;1350;42.134;24.708;2023-03-25T10:02:48;98834.09;;;28.20;33.98
2681;BME280;1350;42.134;24.708;2023-03-25T10:05:42;98819.75;;;27.46;33.77
2681;BME280;1350;42.134;24.708;2023-03-25T10:08:16;98812.69;;;27.97;33.80
2681;BME280;1350;42.134;24.708;2023-03-25T10:10:52;98809.50;;;26.67;35.13
2681;BME280;1350;42.134;24.708;2023-03-25T10:13:26;98809.47;;;25.84;35.86
2681;BME280;1350;42.134;24.708;2023-03-25T10:15:58;98797.63;;;26.68;34.97
2681;BME280;1350;42.134;24.708;2023-03-25T10:18:48;98792.78;;;27.10;34.48
2681;BME280;1350;42.134;24.708;2023-03-25T10:21:21;98791.91;;;26.63;34.87
2681;BME280;1350;42.134;24.708;2023-03-25T10:23:58;98785.03;;;27.14;34.54
2681;BME280;1350;42.134;24.708;2023-03-25T10:26:29;98778.09;;;27.97;34.20
2681;BME280;1350;42.134;24.708;2023-03-25T10:29:02;98773.25;;;27.67;34.92
2681;BME280;1350;42.134;24.708;2023-03-25T10:31:34;98761.47;;;27.40;35.04
2681;BME280;1350;42.134;24.708;2023-03-25T10:34:06;98760.28;;;27.02;34.99
2681;BME280;1350;42.134;24.708;2023-03-25T10:36:42;98752.06;;;26.83;34.87
2681;BME280;1350;42.134;24.708;2023-03-25T10:39:15;98752.16;;;27.15;34.75
2681;BME280;1350;42.134;24.708;2023-03-25T10:41:46;98746.41;;;27.44;34.72
2681;BME280;1350;42.134;24.708;2023-03-25T10:44:16;98743.88;;;27.62;34.32
2681;BME280;1350;42.134;24.708;2023-03-25T10:46:45;98733.00;;;27.62;34.01
2681;BME280;1350;42.134;24.708;2023-03-25T10:49:17;98733.63;;;27.97;33.93
2681;BME280;1350;42.134;24.708;2023-03-25T10:51:46;98732.56;;;28.11;33.55
2681;BME280;1350;42.134;24.708;2023-03-25T10:54:14;98728.31;;;28.54;33.64
2681;BME280;1350;42.134;24.708;2023-03-25T10:56:46;98725.69;;;28.79;33.11
2681;BME280;1350;42.134;24.708;2023-03-25T10:59:18;98729.00;;;27.45;33.92
2681;BME280;1350;42.134;24.708;2023-03-25T11:01:46;98722.91;;;27.37;33.93
2681;BME280;1350;42.134;24.708;2023-03-25T11:04:16;98718.97;;;28.05;34.14
2681;BME280;1350;42.134;24.708;2023-03-25T11:06:45;98713.72;;;27.96;33.78
2681;BME280;1350;42.134;24.708;2023-03-25T11:09:22;98710.75;;;28.11;33.15
2681;BME280;1350;42.134;24.708;2023-03-25T11:11:51;98708.88;;;28.12;33.26
2681;BME280;1350;42.134;24.708;2023-03-25T11:14:21;98706.97;;;28.19;33.66
2681;BME280;1350;42.134;24.708;2023-03-25T11:16:54;98698.53;;;28.40;32.89
2681;BME280;1350;42.134;24.708;2023-03-25T11:19:24;98697.03;;;28.57;32.62
2681;BME280;1350;42.134;24.708;2023-03-25T11:21:54;98683.41;;;28.94;33.06
2681;BME280;1350;42.134;24.708;2023-03-25T11:24:28;98680.19;;;29.04;32.70
2681;BME280;1350;42.134;24.708;2023-03-25T11:26:58;98675.72;;;29.47;32.23
2681;BME280;1350;42.134;24.708;2023-03-25T11:29:26;98666.59;;;29.59;32.94
2681;BME280;1350;42.134;24.708;2023-03-25T11:31:57;98666.53;;;29.41;32.43
2681;BME280;1350;42.134;24.708;2023-03-25T11:34:30;98662.97;;;29.41;32.96
2681;BME280;1350;42.134;24.708;2023-03-25T11:37:00;98654.47;;;29.24;32.50
2681;BME280;1350;42.134;24.708;2023-03-25T11:39:32;98656.00;;;28.76;32.70
2681;BME280;1350;42.134;24.708;2023-03-25T11:42:13;98655.03;;;28.58;33.28
2681;BME280;1350;42.134;24.708;2023-03-25T11:44:50;98642.09;;;28.84;32.86
2681;BME280;1350;42.134;24.708;2023-03-25T11:47:21;98644.41;;;28.37;33.20
2681;BME280;1350;42.134;24.708;2023-03-25T11:49:52;98627.38;;;27.45;33.79
2681;BME280;1350;42.134;24.708;2023-03-25T11:52:22;98623.53;;;28.05;33.96
2681;BME280;1350;42.134;24.708;2023-03-25T11:54:51;98617.19;;;28.17;33.59
2681;BME280;1350;42.134;24.708;2023-03-25T11:57:23;98609.31;;;28.53;33.51
2681;BME280;1350;42.134;24.708;2023-03-25T12:00:00;98615.53;;;28.67;33.01
2681;BME280;1350;42.134;24.708;2023-03-25T12:02:36;98608.38;;;28.72;32.36
2681;BME280;1350;42.134;24.708;2023-03-25T12:05:11;98614.13;;;28.51;33.01
2681;BME280;1350;42.134;24.708;2023-03-25T12:07:42;98602.56;;;27.98;33.60
2681;BME280;1350;42.134;24.708;2023-03-25T12:10:16;98599.22;;;27.83;33.80
2681;BME280;1350;42.134;24.708;2023-03-25T12:12:51;98582.97;;;27.44;34.12
2681;BME280;1350;42.134;24.708;2023-03-25T12:15:26;98577.19;;;28.05;33.77
2681;BME280;1350;42.134;24.708;2023-03-25T12:18:10;98581.00;;;27.77;34.09
2681;BME280;1350;42.134;24.708;2023-03-25T12:20:51;98585.88;;;27.49;34.26
2681;BME280;1350;42.134;24.708;2023-03-25T12:23:29;98573.88;;;27.83;34.24
2681;BME280;1350;42.134;24.708;2023-03-25T12:26:07;98572.50;;;27.35;34.17
2681;BME280;1350;42.134;24.708;2023-03-25T12:31:35;98564.81;;;28.02;33.97
2681;BME280;1350;42.134;24.708;2023-03-25T12:34:12;98567.16;;;28.43;33.65
2681;BME280;1350;42.134;24.708;2023-03-25T12:36:52;98559.47;;;27.50;33.84
2681;BME280;1350;42.134;24.708;2023-03-25T12:39:40;98559.66;;;26.70;34.91
2681;BME280;1350;42.134;24.708;2023-03-25T12:42:19;98551.19;;;26.39;35.78
2681;BME280;1350;42.134;24.708;2023-03-25T12:45:02;98544.13;;;26.44;35.22
2681;BME280;1350;42.134;24.708;2023-03-25T12:47:34;98543.03;;;26.39;35.49
2681;BME280;1350;42.134;24.708;2023-03-25T12:52:54;98528.59;;;25.78;35.77
2681;BME280;1350;42.134;24.708;2023-03-25T12:55:50;98520.72;;;25.22;37.13
2681;BME280;1350;42.134;24.708;2023-03-25T12:58:52;98512.56;;;25.22;37.32
2681;BME280;1350;42.134;24.708;2023-03-25T13:01:31;98507.28;;;24.86;37.95
2681;BME280;1350;42.134;24.708;2023-03-25T13:04:14;98500.16;;;25.13;38.36
2681;BME280;1350;42.134;24.708;2023-03-25T13:06:57;98500.81;;;25.15;38.59
2681;BME280;1350;42.134;24.708;2023-03-25T13:09:26;98504.06;;;25.04;39.39
2681;BME280;1350;42.134;24.708;2023-03-25T13:11:57;98512.66;;;24.58;39.13
2681;BME280;1350;42.134;24.708;2023-03-25T13:14:28;98506.44;;;24.43;39.44
2681;BME280;1350;42.134;24.708;2023-03-25T13:17:03;98490.16;;;24.85;39.09
2681;BME280;1350;42.134;24.708;2023-03-25T13:19:33;98496.25;;;24.66;39.20
2681;BME280;1350;42.134;24.708;2023-03-25T13:22:09;98491.00;;;24.86;38.50
2681;BME280;1350;42.134;24.708;2023-03-25T13:24:44;98490.34;;;25.12;38.50
2681;BME280;1350;42.134;24.708;2023-03-25T13:27:14;98484.13;;;25.18;38.60
2681;BME280;1350;42.134;24.708;2023-03-25T13:29:42;98480.63;;;24.96;39.09
2681;BME280;1350;42.134;24.708;2023-03-25T13:32:17;98480.44;;;24.98;38.64
2681;BME280;1350;42.134;24.708;2023-03-25T13:34:49;98495.84;;;25.18;38.77
2681;BME280;1350;42.134;24.708;2023-03-25T13:37:21;98481.34;;;25.05;39.20
2681;BME280;1350;42.134;24.708;2023-03-25T13:39:54;98488.25;;;25.07;39.73
2681;BME280;1350;42.134;24.708;2023-03-25T13:42:26;98481.88;;;24.94;38.86